createdAt,value
2022-11-29T00:01:41.167Z,89.41
2022-11-29T00:04:08.527Z,89.37
2022-11-29T00:06:36.005Z,89.45
2022-11-29T00:09:11.854Z,88.98
2022-11-29T00:12:04.822Z,89.06
2022-11-29T00:14:33.060Z,89.06
2022-11-29T00:17:04.660Z,89.22
2022-11-29T00:19:33.997Z,89.38
2022-11-29T00:22:01.969Z,88.95
2022-11-29T00:24:31.814Z,89.18
2022-11-29T00:26:59.198Z,89.19
2022-11-29T00:29:27.550Z,89.35
2022-11-29T00:31:54.508Z,89.36
2022-11-29T00:34:22.186Z,89.31
2022-11-29T00:36:51.452Z,89.21
2022-11-29T00:39:20.905Z,89.18
2022-11-29T00:41:48.384Z,89.61
2022-11-29T00:44:19.875Z,89.68
2022-11-29T00:46:47.755Z,89.71
2022-11-29T00:49:15.058Z,89.79
2022-11-29T00:51:42.271Z,90.15
2022-11-29T00:54:10.716Z,90.42
2022-11-29T00:56:37.685Z,90.60
2022-11-29T00:59:04.853Z,90.74
2022-11-29T01:01:32.127Z,90.80
2022-11-29T01:04:01.254Z,91.06
2022-11-29T01:06:29.569Z,91.07
2022-11-29T01:08:56.550Z,91.34
2022-11-29T01:11:26.925Z,91.22
2022-11-29T01:13:57.903Z,91.38
2022-11-29T01:16:25.262Z,91.71
2022-11-29T01:18:53.526Z,91.84
2022-11-29T01:21:23.047Z,91.82
2022-11-29T01:23:53.147Z,92.00
2022-11-29T01:26:31.580Z,92.28
2022-11-29T01:29:01.003Z,91.98
2022-11-29T01:31:37.843Z,92.34
2022-11-29T01:34:06.048Z,92.85
2022-11-29T01:36:33.697Z,92.66
2022-11-29T01:39:03.981Z,92.43
2022-11-29T01:41:34.607Z,92.54
2022-11-29T01:44:13.981Z,92.62
2022-11-29T01:46:43.770Z,92.46
2022-11-29T01:49:19.870Z,92.75
2022-11-29T01:51:51.814Z,92.76
2022-11-29T01:54:20.468Z,92.73
2022-11-29T01:56:50.821Z,92.59
2022-11-29T01:59:22.362Z,92.62
2022-11-29T02:01:49.728Z,92.46
2022-11-29T02:04:19.019Z,92.55
2022-11-29T02:06:46.836Z,92.25
2022-11-29T02:09:20.029Z,92.21
2022-11-29T02:12:21.612Z,92.34
2022-11-29T02:15:08.317Z,92.35
2022-11-29T02:18:02.861Z,92.40
2022-11-29T02:21:24.679Z,92.56
2022-11-29T02:24:26.933Z,92.43
2022-11-29T02:27:17.227Z,92.51
2022-11-29T02:30:03.231Z,92.80
2022-11-29T02:33:00.720Z,92.56
2022-11-29T02:35:54.341Z,92.59
2022-11-29T02:39:08.828Z,92.82
2022-11-29T02:42:26.314Z,92.90
2022-11-29T02:45:25.391Z,92.46
2022-11-29T02:47:56.841Z,92.63
2022-11-29T02:50:36.892Z,92.36
2022-11-29T02:53:23.234Z,91.98
2022-11-29T02:56:11.257Z,91.83
2022-11-29T02:59:01.752Z,91.37
2022-11-29T03:01:52.543Z,90.95
2022-11-29T03:04:34.284Z,90.49
2022-11-29T03:07:25.765Z,90.81
2022-11-29T03:10:17.727Z,90.82
2022-11-29T03:12:53.919Z,90.79
2022-11-29T03:15:43.105Z,90.94
2022-11-29T03:18:56.314Z,91.13
2022-11-29T03:21:23.397Z,91.34
2022-11-29T03:23:59.145Z,91.46
2022-11-29T03:26:51.925Z,91.84
2022-11-29T03:29:28.140Z,92.07
2022-11-29T03:32:06.355Z,92.14
2022-11-29T03:34:56.981Z,91.85
2022-11-29T03:37:47.578Z,91.67
2022-11-29T03:40:21.583Z,91.48
2022-11-29T03:42:57.177Z,91.20
2022-11-29T03:45:44.977Z,91.33
2022-11-29T03:48:17.752Z,91.19
2022-11-29T03:50:56.575Z,91.29
2022-11-29T03:54:03.115Z,91.17
2022-11-29T03:56:40.629Z,91.05
2022-11-29T03:59:42.081Z,91.19
2022-11-29T04:02:41.316Z,91.11
2022-11-29T04:05:31.156Z,91.44
2022-11-29T04:08:36.557Z,91.17
2022-11-29T04:11:36.241Z,91.09
2022-11-29T04:14:24.290Z,91.11
2022-11-29T04:17:23.144Z,90.79
2022-11-29T04:20:02.121Z,91.00
2022-11-29T04:22:47.576Z,91.02
2022-11-29T04:25:14.767Z,90.62
2022-11-29T04:28:06.637Z,90.52
2022-11-29T04:31:02.165Z,90.56
2022-11-29T04:33:51.418Z,90.51
2022-11-29T04:36:43.819Z,90.64
2022-11-29T04:39:14.944Z,90.34
2022-11-29T04:42:09.299Z,90.45
2022-11-29T04:45:00.458Z,90.11
2022-11-29T04:47:59.179Z,90.41
2022-11-29T04:50:44.953Z,90.30
2022-11-29T04:53:27.915Z,90.28
2022-11-29T04:56:40.043Z,90.26
2022-11-29T04:59:16.136Z,90.54
2022-11-29T05:02:20.933Z,90.46
2022-11-29T05:05:13.801Z,90.09
2022-11-29T05:07:52.293Z,90.16
2022-11-29T05:10:44.183Z,89.67
2022-11-29T05:13:34.701Z,89.91
2022-11-29T05:16:17.003Z,90.10
2022-11-29T05:18:44.939Z,89.97
2022-11-29T05:21:37.818Z,89.98
2022-11-29T05:24:24.336Z,90.16
2022-11-29T05:27:06.658Z,90.38
2022-11-29T05:30:07.211Z,90.47
2022-11-29T05:32:51.991Z,90.63
2022-11-29T05:35:53.484Z,90.47
2022-11-29T05:38:20.533Z,90.48
2022-11-29T05:41:00.499Z,90.45
2022-11-29T05:43:46.244Z,90.59
2022-11-29T05:46:34.298Z,90.79
2022-11-29T05:49:10.459Z,90.58
2022-11-29T05:52:25.318Z,90.92
2022-11-29T05:55:17.561Z,90.86
2022-11-29T05:57:56.008Z,90.80
2022-11-29T06:00:28.035Z,90.92
2022-11-29T06:03:09.439Z,90.98
2022-11-29T06:06:00.952Z,91.15
2022-11-29T06:09:22.016Z,91.14
2022-11-29T06:11:56.969Z,91.12
2022-11-29T06:14:45.303Z,91.10
2022-11-29T06:17:37.248Z,91.25
2022-11-29T06:20:25.938Z,90.92
2022-11-29T06:23:28.777Z,91.45
2022-11-29T06:26:03.509Z,91.55
2022-11-29T06:28:49.354Z,91.78
2022-11-29T06:31:28.782Z,91.63
2022-11-29T06:34:06.722Z,91.54
2022-11-29T06:36:46.502Z,91.27
2022-11-29T06:39:21.871Z,91.23
2022-11-29T06:41:50.125Z,91.20
2022-11-29T06:44:17.807Z,90.97
2022-11-29T06:46:52.516Z,90.59
2022-11-29T06:49:27.824Z,91.09
2022-11-29T06:51:55.135Z,91.25
2022-11-29T06:54:25.272Z,91.24
2022-11-29T06:56:58.233Z,91.36
2022-11-29T06:59:50.890Z,90.98
2022-11-29T07:02:25.134Z,90.80
2022-11-29T07:05:14.184Z,90.92
2022-11-29T07:07:42.807Z,90.80
2022-11-29T07:10:22.249Z,90.99
2022-11-29T07:12:55.906Z,91.08
2022-11-29T07:15:42.340Z,91.13
2022-11-29T07:19:01.530Z,90.69
2022-11-29T07:21:37.512Z,90.78
2022-11-29T07:24:42.227Z,90.29
2022-11-29T07:27:25.240Z,90.78
2022-11-29T07:30:19.515Z,90.62
2022-11-29T07:32:57.246Z,90.75
2022-11-29T07:36:00.726Z,90.48
2022-11-29T07:38:49.444Z,90.57
2022-11-29T07:41:24.722Z,90.45
2022-11-29T07:44:21.574Z,90.21
2022-11-29T07:46:48.919Z,90.04
2022-11-29T07:49:18.345Z,89.96
2022-11-29T07:51:45.536Z,89.84
2022-11-29T07:54:18.062Z,89.61
2022-11-29T07:56:45.481Z,89.65
2022-11-29T07:59:13.271Z,89.88
2022-11-29T08:01:40.486Z,89.81
2022-11-29T08:04:09.030Z,89.55
2022-11-29T08:06:36.930Z,89.09
2022-11-29T08:09:04.596Z,89.31
2022-11-29T08:11:32.676Z,89.23
2022-11-29T08:14:01.305Z,89.03
2022-11-29T08:16:28.658Z,88.89
2022-11-29T08:18:55.695Z,88.84
2022-11-29T08:21:24.618Z,88.83
2022-11-29T08:23:52.281Z,88.50
2022-11-29T08:26:20.939Z,88.28
2022-11-29T08:29:00.219Z,88.08
2022-11-29T08:31:27.188Z,87.71
2022-11-29T08:33:55.659Z,87.45
2022-11-29T08:36:23.625Z,87.61
2022-11-29T08:38:54.165Z,87.37
2022-11-29T08:41:26.289Z,87.01
2022-11-29T08:43:53.231Z,86.98
2022-11-29T08:46:20.775Z,87.01
2022-11-29T08:48:48.793Z,86.46
2022-11-29T08:51:16.035Z,86.50
2022-11-29T08:53:43.676Z,86.54
2022-11-29T08:56:53.499Z,86.53
2022-11-29T08:59:01.515Z,86.39
2022-11-29T09:01:29.590Z,85.43
2022-11-29T09:03:59.867Z,85.10
2022-11-29T09:06:41.295Z,84.10
2022-11-29T09:09:08.890Z,83.10
2022-11-29T09:11:36.973Z,82.35
2022-11-29T09:14:06.595Z,82.22
2022-11-29T09:16:37.063Z,80.35
2022-11-29T09:19:08.086Z,79.93
2022-11-29T09:21:37.265Z,80.13
2022-11-29T09:24:06.764Z,80.34
2022-11-29T09:26:36.057Z,80.52
2022-11-29T09:29:05.561Z,80.82
2022-11-29T09:31:33.203Z,80.93
2022-11-29T09:34:00.839Z,81.27
2022-11-29T09:36:29.724Z,81.17
2022-11-29T09:38:57.979Z,81.37
2022-11-29T09:42:02.614Z,80.66
2022-11-29T09:44:41.288Z,80.94
2022-11-29T09:47:23.130Z,81.42
2022-11-29T09:50:03.964Z,81.65
2022-11-29T09:52:44.345Z,81.53
2022-11-29T09:55:26.595Z,81.75
2022-11-29T09:57:55.690Z,81.45
2022-11-29T10:00:22.881Z,80.89
2022-11-29T10:03:17.903Z,80.62
2022-11-29T10:05:50.539Z,80.54
2022-11-29T10:08:42.587Z,80.43
2022-11-29T10:11:20.518Z,79.70
2022-11-29T10:14:00.500Z,79.70
2022-11-29T10:17:06.534Z,79.26
2022-11-29T10:19:38.483Z,78.99
2022-11-29T10:22:49.608Z,77.79
2022-11-29T10:25:26.164Z,73.79
2022-11-29T10:27:54.733Z,71.40
2022-11-29T10:30:22.631Z,68.02
2022-11-29T10:32:56.684Z,66.93
2022-11-29T10:35:24.723Z,66.70
2022-11-29T10:38:22.594Z,65.86
2022-11-29T10:40:47.199Z,63.77
2022-11-29T10:43:14.622Z,64.68
2022-11-29T10:45:50.863Z,66.20
2022-11-29T10:48:21.297Z,69.45
2022-11-29T10:50:50.656Z,69.17
2022-11-29T10:53:32.250Z,70.06
2022-11-29T10:56:18.118Z,70.00
2022-11-29T10:59:05.337Z,66.77
2022-11-29T11:01:38.662Z,64.83
2022-11-29T11:04:35.623Z,64.55
2022-11-29T11:07:06.182Z,63.95
2022-11-29T11:09:47.427Z,65.62
2022-11-29T11:12:14.824Z,65.46
2022-11-29T11:14:42.783Z,65.33
2022-11-29T11:17:21.051Z,65.67
2022-11-29T11:20:04.855Z,65.38
2022-11-29T11:22:34.227Z,64.67
2022-11-29T11:25:24.521Z,64.61
2022-11-29T11:27:52.364Z,61.72
2022-11-29T11:30:24.980Z,61.87
2022-11-29T11:33:25.359Z,62.47
2022-11-29T11:36:21.962Z,64.78
2022-11-29T11:39:10.554Z,67.11
2022-11-29T11:42:05.736Z,69.33
2022-11-29T11:44:47.703Z,69.44
2022-11-29T11:47:27.780Z,70.12
2022-11-29T11:50:03.954Z,70.52
2022-11-29T11:52:50.908Z,70.94
2022-11-29T11:55:19.361Z,69.96
2022-11-29T11:57:57.697Z,69.76
2022-11-29T12:01:04.059Z,67.54
2022-11-29T12:03:53.031Z,67.84
2022-11-29T12:06:44.237Z,68.25
2022-11-29T12:09:11.458Z,66.50
2022-11-29T12:11:51.614Z,66.63
2022-11-29T12:15:03.778Z,66.78
2022-11-29T12:17:41.510Z,67.00
2022-11-29T12:20:22.767Z,67.28
2022-11-29T12:23:13.885Z,67.80
2022-11-29T12:25:47.149Z,68.96
2022-11-29T12:28:20.684Z,69.35
2022-11-29T12:31:02.510Z,68.88
2022-11-29T12:33:30.618Z,69.74
2022-11-29T12:36:13.360Z,69.76
2022-11-29T12:39:03.902Z,69.41
2022-11-29T12:41:51.004Z,69.54
2022-11-29T12:44:39.261Z,69.26
2022-11-29T12:47:37.147Z,69.84
2022-11-29T12:50:22.600Z,69.51
2022-11-29T12:53:27.421Z,70.46
2022-11-29T12:56:19.085Z,70.07
2022-11-29T12:59:04.942Z,70.95
2022-11-29T13:01:37.940Z,71.53
2022-11-29T13:04:23.879Z,70.37
2022-11-29T13:07:22.364Z,71.59
2022-11-29T13:10:28.352Z,71.47
2022-11-29T13:13:13.492Z,71.47
2022-11-29T13:15:52.409Z,71.73
2022-11-29T13:18:50.136Z,71.84
2022-11-29T13:21:23.239Z,72.26
2022-11-29T13:24:09.672Z,72.81
2022-11-29T13:26:40.298Z,72.89
2022-11-29T13:29:13.014Z,72.71
2022-11-29T13:31:40.515Z,73.01
2022-11-29T13:34:24.071Z,72.75
2022-11-29T13:37:08.421Z,72.66
2022-11-29T13:39:59.226Z,72.99
2022-11-29T13:42:38.733Z,73.71
2022-11-29T13:45:27.417Z,73.35
2022-11-29T13:48:00.256Z,73.68
2022-11-29T13:50:39.481Z,73.97
2022-11-29T13:53:23.988Z,77.05
2022-11-29T13:56:02.959Z,75.91
2022-11-29T13:58:39.319Z,74.64
2022-11-29T14:01:13.517Z,73.78
2022-11-29T14:03:45.711Z,73.67
2022-11-29T14:06:14.681Z,73.77
2022-11-29T14:09:21.153Z,73.30
2022-11-29T14:12:27.482Z,73.35
2022-11-29T14:15:04.732Z,73.71
2022-11-29T14:17:51.346Z,73.33
2022-11-29T14:20:28.716Z,73.64
2022-11-29T14:23:31.746Z,73.87
2022-11-29T14:25:59.818Z,73.71
2022-11-29T14:28:41.151Z,73.79
2022-11-29T14:31:09.968Z,73.55
2022-11-29T14:34:00.713Z,73.24
2022-11-29T14:36:38.470Z,73.60
2022-11-29T14:39:19.511Z,73.97
2022-11-29T14:41:56.223Z,73.81
2022-11-29T14:44:29.744Z,74.16
2022-11-29T14:47:19.924Z,74.29
2022-11-29T14:49:47.322Z,74.91
2022-11-29T14:52:14.742Z,75.21
2022-11-29T14:55:05.791Z,74.93
2022-11-29T14:57:48.242Z,74.94
2022-11-29T15:00:20.612Z,75.53
2022-11-29T15:02:59.320Z,75.41
2022-11-29T15:05:46.803Z,75.86
2022-11-29T15:08:19.548Z,75.44
2022-11-29T15:11:02.192Z,75.34
2022-11-29T15:13:36.732Z,75.80
2022-11-29T15:16:33.407Z,76.06
2022-11-29T15:19:29.230Z,76.17
2022-11-29T15:22:14.989Z,76.11
2022-11-29T15:25:02.913Z,75.90
2022-11-29T15:27:39.970Z,75.98
2022-11-29T15:30:21.059Z,76.12
2022-11-29T15:32:50.201Z,76.20
2022-11-29T15:35:20.004Z,75.96
2022-11-29T15:37:50.152Z,76.11
2022-11-29T15:40:20.057Z,75.81
2022-11-29T15:43:14.076Z,76.31
2022-11-29T15:45:46.986Z,76.39
2022-11-29T15:48:26.705Z,76.48
2022-11-29T15:51:00.111Z,77.00
2022-11-29T15:53:39.764Z,77.34
2022-11-29T15:56:17.820Z,77.10
2022-11-29T15:58:48.556Z,77.35
2022-11-29T16:01:21.223Z,77.25
2022-11-29T16:03:53.830Z,77.53
2022-11-29T16:06:28.212Z,77.12
2022-11-29T16:08:55.679Z,77.96
2022-11-29T16:11:28.105Z,77.99
2022-11-29T16:14:13.120Z,78.27
2022-11-29T16:16:43.420Z,77.96
2022-11-29T16:19:39.120Z,78.10
2022-11-29T16:22:15.050Z,78.35
2022-11-29T16:24:54.068Z,78.33
2022-11-29T16:27:23.154Z,78.66
2022-11-29T16:29:55.284Z,79.20
2022-11-29T16:32:32.103Z,80.10
2022-11-29T16:35:15.454Z,80.53
2022-11-29T16:37:44.799Z,80.96
2022-11-29T16:40:24.688Z,81.72
2022-11-29T16:43:04.365Z,82.14
2022-11-29T16:45:37.284Z,82.28
2022-11-29T16:48:22.458Z,82.84
2022-11-29T16:51:08.760Z,82.62
2022-11-29T16:53:42.853Z,82.75
2022-11-29T16:56:16.512Z,82.50
2022-11-29T16:59:25.404Z,82.76
2022-11-29T17:01:34.290Z,82.99
2022-11-29T17:04:01.832Z,83.22
2022-11-29T17:06:30.587Z,83.14
2022-11-29T17:09:00.044Z,83.18
2022-11-29T17:11:28.054Z,83.46
2022-11-29T17:13:55.233Z,83.43
2022-11-29T17:16:24.808Z,83.24
2022-11-29T17:18:55.180Z,83.15
2022-11-29T17:21:28.189Z,83.14
2022-11-29T17:23:55.726Z,83.23
2022-11-29T17:26:24.815Z,83.13
2022-11-29T17:28:52.490Z,83.17
2022-11-29T17:31:23.140Z,82.80
2022-11-29T17:33:57.224Z,82.63
2022-11-29T17:36:24.462Z,82.56
2022-11-29T17:38:51.930Z,82.75
2022-11-29T17:41:23.258Z,82.33
2022-11-29T17:43:52.417Z,81.77
2022-11-29T17:46:23.358Z,81.95
2022-11-29T17:49:10.694Z,81.81
2022-11-29T17:51:54.428Z,82.24
2022-11-29T17:54:23.399Z,82.46
2022-11-29T17:56:52.519Z,82.84
2022-11-29T17:59:20.414Z,82.88
2022-11-29T18:01:49.080Z,82.50
2022-11-29T18:04:16.266Z,82.58
2022-11-29T18:06:46.144Z,82.54
2022-11-29T18:09:13.715Z,82.25
2022-11-29T18:11:48.660Z,82.40
2022-11-29T18:14:24.082Z,82.05
2022-11-29T18:16:53.603Z,82.21
2022-11-29T18:19:22.664Z,82.09
2022-11-29T18:21:51.674Z,82.31
2022-11-29T18:24:22.804Z,82.50
2022-11-29T18:26:51.220Z,82.72
2022-11-29T18:29:18.722Z,82.79
2022-11-29T18:31:46.717Z,83.09
2022-11-29T18:34:16.917Z,83.33
2022-11-29T18:36:48.845Z,83.68
2022-11-29T18:39:19.096Z,84.04
2022-11-29T18:41:50.961Z,84.49
2022-11-29T18:44:20.783Z,84.52
2022-11-29T18:46:48.721Z,84.84
2022-11-29T18:49:18.754Z,85.09
2022-11-29T18:51:47.529Z,84.90
2022-11-29T18:54:17.144Z,85.11
2022-11-29T18:56:46.280Z,85.28
2022-11-29T18:59:19.896Z,85.39
2022-11-29T19:01:50.741Z,85.44
2022-11-29T19:04:20.822Z,85.48
2022-11-29T19:06:48.719Z,85.78
2022-11-29T19:09:24.056Z,85.94
2022-11-29T19:12:04.445Z,86.01
2022-11-29T19:14:33.055Z,86.18
2022-11-29T19:17:00.996Z,86.32
2022-11-29T19:19:28.988Z,86.71
2022-11-29T19:21:56.882Z,86.64
2022-11-29T19:24:25.955Z,86.72
2022-11-29T19:26:56.507Z,87.00
2022-11-29T19:29:24.006Z,87.50
2022-11-29T19:31:51.507Z,87.59
2022-11-29T19:34:19.340Z,87.76
2022-11-29T19:36:47.419Z,87.93
2022-11-29T19:39:17.600Z,87.84
2022-11-29T19:41:49.223Z,88.20
2022-11-29T19:44:16.900Z,88.19
2022-11-29T19:46:49.337Z,88.47
2022-11-29T19:49:16.924Z,88.65
2022-11-29T19:51:45.238Z,89.00
2022-11-29T19:54:12.845Z,89.10
2022-11-29T19:56:40.427Z,89.10
2022-11-29T19:59:10.046Z,89.27
2022-11-29T20:01:42.647Z,89.68
2022-11-29T20:04:17.463Z,89.86
2022-11-29T20:06:46.795Z,89.98
2022-11-29T20:09:15.160Z,90.30
2022-11-29T20:11:43.140Z,90.27
2022-11-29T20:14:12.624Z,90.54
2022-11-29T20:16:41.063Z,90.53
2022-11-29T20:19:18.436Z,90.82
2022-11-29T20:21:49.649Z,91.00
2022-11-29T20:24:18.459Z,91.32
2022-11-29T20:26:48.277Z,91.70
2022-11-29T20:29:23.660Z,91.69
2022-11-29T20:31:54.205Z,91.92
2022-11-29T20:34:21.855Z,92.07
2022-11-29T20:37:19.262Z,92.06
2022-11-29T20:39:50.151Z,92.78
2022-11-29T20:42:38.372Z,92.92
2022-11-29T20:45:09.043Z,93.43
2022-11-29T20:47:52.766Z,94.15
2022-11-29T20:50:26.770Z,94.44
2022-11-29T20:53:13.877Z,94.79
2022-11-29T20:55:47.729Z,95.19
2022-11-29T20:58:18.959Z,95.71
2022-11-29T21:00:47.281Z,95.58
2022-11-29T21:03:16.174Z,95.93
2022-11-29T21:05:44.574Z,96.12
2022-11-29T21:08:13.865Z,96.27
2022-11-29T21:10:43.637Z,96.41
2022-11-29T21:13:13.205Z,96.52
2022-11-29T21:15:42.283Z,96.68
2022-11-29T21:18:26.784Z,97.10
2022-11-29T21:21:17.056Z,97.46
2022-11-29T21:24:06.958Z,97.60
2022-11-29T21:26:45.010Z,98.04
2022-11-29T21:29:20.524Z,98.09
2022-11-29T21:31:51.255Z,97.95
2022-11-29T21:34:19.704Z,98.36
2022-11-29T21:36:56.511Z,98.66
2022-11-29T21:39:34.407Z,98.89
2022-11-29T21:42:03.173Z,98.98
2022-11-29T21:44:31.516Z,99.08
2022-11-29T21:46:58.513Z,98.96
2022-11-29T21:49:26.036Z,99.03
2022-11-29T21:51:53.347Z,99.24
2022-11-29T21:54:20.400Z,99.55
2022-11-29T21:56:47.815Z,99.57
2022-11-29T21:59:14.891Z,99.24
2022-11-29T22:01:44.384Z,99.19
2022-11-29T22:04:11.890Z,99.38
2022-11-29T22:06:39.409Z,99.86
2022-11-29T22:09:07.961Z,100.00
2022-11-29T22:11:35.633Z,100.00
2022-11-29T22:14:14.558Z,100.00
2022-11-29T22:16:48.234Z,100.00
2022-11-29T22:19:18.739Z,100.00
2022-11-29T22:21:50.275Z,100.00
2022-11-29T22:24:19.666Z,100.00
2022-11-29T22:26:48.285Z,100.00
2022-11-29T22:29:15.945Z,100.00
2022-11-29T22:31:44.519Z,100.00
2022-11-29T22:34:11.978Z,100.00
2022-11-29T22:36:40.244Z,100.00
2022-11-29T22:39:09.308Z,100.00
2022-11-29T22:41:38.334Z,100.00
2022-11-29T22:44:06.322Z,100.00
2022-11-29T22:46:35.953Z,100.00
2022-11-29T22:49:04.353Z,100.00
2022-11-29T22:51:34.279Z,100.00
2022-11-29T22:54:04.404Z,100.00
2022-11-29T22:56:34.602Z,100.00
2022-11-29T22:59:02.070Z,100.00
2022-11-29T23:01:30.867Z,100.00
2022-11-29T23:04:01.418Z,100.00
2022-11-29T23:06:40.936Z,100.00
2022-11-29T23:09:16.690Z,100.00
2022-11-29T23:11:45.735Z,100.00
2022-11-29T23:14:12.869Z,100.00
2022-11-29T23:16:41.827Z,100.00
2022-11-29T23:19:09.272Z,100.00
2022-11-29T23:21:39.329Z,100.00
2022-11-29T23:24:07.025Z,100.00
2022-11-29T23:26:40.380Z,100.00
2022-11-29T23:29:13.755Z,100.00
2022-11-29T23:31:42.485Z,100.00
2022-11-29T23:34:16.281Z,100.00
2022-11-29T23:36:49.787Z,100.00
2022-11-29T23:39:20.224Z,100.00
2022-11-29T23:41:49.551Z,100.00
2022-11-29T23:44:16.491Z,100.00
2022-11-29T23:46:43.869Z,100.00
2022-11-29T23:49:13.895Z,100.00
2022-11-29T23:51:42.952Z,100.00
2022-11-29T23:54:11.356Z,100.00
2022-11-29T23:56:38.360Z,100.00
2022-11-29T23:59:06.916Z,100.00
